sensor_id;sensor_type;location;lat;lon;timestamp;pressure;altitude;pressure_sealevel;temperature;humidity
71638;BME280;59485;43.542;-5.676;2023-05-21T00:01:31;101687.16;;;13.55;nan
71638;BME280;59485;43.542;-5.676;2023-05-21T00:03:57;101670.03;;;13.45;nan
71638;BME280;59485;43.542;-5.676;2023-05-21T00:06:24;101681.38;;;13.50;nan
71638;BME280;59485;43.542;-5.676;2023-05-21T00:08:49;101667.06;;;13.32;nan
71638;BME280;59485;43.542;-5.676;2023-05-21T00:11:15;101686.47;;;13.38;nan
71638;BME280;59485;43.542;-5.676;2023-05-21T00:13:41;101668.47;;;13.28;nan
71638;BME280;59485;43.542;-5.676;2023-05-21T00:16:06;101692.47;;;13.42;nan
71638;BME280;59485;43.542;-5.676;2023-05-21T00:18:32;101667.16;;;13.24;nan
71638;BME280;59485;43.542;-5.676;2023-05-21T00:20:59;101694.91;;;13.37;nan
71638;BME280;59485;43.542;-5.676;2023-05-21T00:23:25;101663.03;;;13.20;nan
71638;BME280;59485;43.542;-5.676;2023-05-21T00:25:51;101679.50;;;13.28;nan
71638;BME280;59485;43.542;-5.676;2023-05-21T00:28:17;101654.50;;;13.06;nan
71638;BME280;59485;43.542;-5.676;2023-05-21T00:30:42;101659.81;;;13.16;nan
71638;BME280;59485;43.542;-5.676;2023-05-21T00:33:08;101654.66;;;13.13;nan
71638;BME280;59485;43.542;-5.676;2023-05-21T00:35:35;101676.81;;;13.20;nan
71638;BME280;59485;43.542;-5.676;2023-05-21T00:38:00;101668.28;;;13.14;nan
71638;BME280;59485;43.542;-5.676;2023-05-21T00:40:26;101678.03;;;13.17;nan
71638;BME280;59485;43.542;-5.676;2023-05-21T00:42:55;101659.66;;;13.09;nan
71638;BME280;59485;43.542;-5.676;2023-05-21T00:45:21;101676.13;;;13.18;nan
71638;BME280;59485;43.542;-5.676;2023-05-21T00:47:50;101656.13;;;13.01;nan
71638;BME280;59485;43.542;-5.676;2023-05-21T00:50:19;101640.53;;;12.93;nan
71638;BME280;59485;43.542;-5.676;2023-05-21T00:52:45;101626.84;;;12.85;nan
71638;BME280;59485;43.542;-5.676;2023-05-21T00:55:13;101647.56;;;12.96;nan
71638;BME280;59485;43.542;-5.676;2023-05-21T00:57:39;101677.41;;;13.07;nan
71638;BME280;59485;43.542;-5.676;2023-05-21T01:00:05;101649.81;;;12.92;nan
71638;BME280;59485;43.542;-5.676;2023-05-21T01:02:35;101676.19;;;13.09;nan
71638;BME280;59485;43.542;-5.676;2023-05-21T01:05:02;101662.47;;;13.01;nan
71638;BME280;59485;43.542;-5.676;2023-05-21T01:07:35;101646.41;;;12.90;nan
71638;BME280;59485;43.542;-5.676;2023-05-21T01:10:04;101641.28;;;12.87;nan
71638;BME280;59485;43.542;-5.676;2023-05-21T01:12:33;101675.50;;;13.07;nan
71638;BME280;59485;43.542;-5.676;2023-05-21T01:15:00;101687.19;;;13.09;nan
71638;BME280;59485;43.542;-5.676;2023-05-21T01:17:28;101645.38;;;12.91;nan
71638;BME280;59485;43.542;-5.676;2023-05-21T01:19:58;101634.59;;;12.82;nan
71638;BME280;59485;43.542;-5.676;2023-05-21T01:22:25;101660.22;;;13.05;nan
71638;BME280;59485;43.542;-5.676;2023-05-21T01:24:53;101666.38;;;13.07;nan
71638;BME280;59485;43.542;-5.676;2023-05-21T01:27:20;101662.13;;;13.04;nan
71638;BME280;59485;43.542;-5.676;2023-05-21T01:29:48;101652.91;;;12.97;nan
71638;BME280;59485;43.542;-5.676;2023-05-21T01:32:25;101634.34;;;12.91;nan
71638;BME280;59485;43.542;-5.676;2023-05-21T01:35:12;101627.81;;;12.92;nan
71638;BME280;59485;43.542;-5.676;2023-05-21T01:37:54;101637.88;;;13.00;nan
71638;BME280;59485;43.542;-5.676;2023-05-21T01:40:33;101644.16;;;12.94;nan
71638;BME280;59485;43.542;-5.676;2023-05-21T01:43:01;101625.31;;;12.83;nan
71638;BME280;59485;43.542;-5.676;2023-05-21T01:45:29;101628.25;;;12.81;nan
71638;BME280;59485;43.542;-5.676;2023-05-21T01:47:56;101606.72;;;12.62;nan
71638;BME280;59485;43.542;-5.676;2023-05-21T01:50:23;101625.94;;;12.70;nan
71638;BME280;59485;43.542;-5.676;2023-05-21T01:52:51;101615.53;;;12.57;nan
71638;BME280;59485;43.542;-5.676;2023-05-21T01:55:18;101599.28;;;12.48;nan
71638;BME280;59485;43.542;-5.676;2023-05-21T01:57:43;101611.81;;;12.50;nan
71638;BME280;59485;43.542;-5.676;2023-05-21T02:00:10;101590.63;;;12.28;nan
71638;BME280;59485;43.542;-5.676;2023-05-21T02:02:36;101597.00;;;12.28;nan
71638;BME280;59485;43.542;-5.676;2023-05-21T02:05:02;101604.94;;;12.23;nan
71638;BME280;59485;43.542;-5.676;2023-05-21T02:07:28;101625.47;;;12.35;nan
71638;BME280;59485;43.542;-5.676;2023-05-21T02:09:56;101617.06;;;12.06;nan
71638;BME280;59485;43.542;-5.676;2023-05-21T02:12:22;101619.44;;;12.09;nan
71638;BME280;59485;43.542;-5.676;2023-05-21T02:14:47;101626.34;;;12.05;nan
71638;BME280;59485;43.542;-5.676;2023-05-21T02:17:14;101635.88;;;12.17;nan
71638;BME280;59485;43.542;-5.676;2023-05-21T02:19:44;101588.44;;;11.92;nan
71638;BME280;59485;43.542;-5.676;2023-05-21T02:22:10;101623.91;;;12.10;nan
71638;BME280;59485;43.542;-5.676;2023-05-21T02:24:35;101594.78;;;11.93;nan
71638;BME280;59485;43.542;-5.676;2023-05-21T02:27:01;101616.34;;;12.12;nan
71638;BME280;59485;43.542;-5.676;2023-05-21T02:29:27;101613.47;;;12.06;nan
71638;BME280;59485;43.542;-5.676;2023-05-21T02:31:53;101603.38;;;11.98;nan
71638;BME280;59485;43.542;-5.676;2023-05-21T02:34:18;101596.50;;;11.94;nan
71638;BME280;59485;43.542;-5.676;2023-05-21T02:36:45;101630.13;;;12.04;nan
71638;BME280;59485;43.542;-5.676;2023-05-21T02:39:13;101607.19;;;11.89;nan
71638;BME280;59485;43.542;-5.676;2023-05-21T02:41:40;101625.31;;;12.06;nan
71638;BME280;59485;43.542;-5.676;2023-05-21T02:44:05;101595.69;;;11.85;nan
71638;BME280;59485;43.542;-5.676;2023-05-21T02:46:31;101600.66;;;11.90;nan
71638;BME280;59485;43.542;-5.676;2023-05-21T02:48:56;101595.16;;;11.90;nan
71638;BME280;59485;43.542;-5.676;2023-05-21T02:51:22;101607.81;;;11.99;nan
71638;BME280;59485;43.542;-5.676;2023-05-21T02:53:47;101621.19;;;12.02;nan
71638;BME280;59485;43.542;-5.676;2023-05-21T02:56:13;101598.47;;;11.77;nan
71638;BME280;59485;43.542;-5.676;2023-05-21T02:58:38;101589.91;;;11.64;nan
71638;BME280;59485;43.542;-5.676;2023-05-21T03:01:04;101630.22;;;11.72;nan
71638;BME280;59485;43.542;-5.676;2023-05-21T03:03:29;101614.81;;;11.62;nan
71638;BME280;59485;43.542;-5.676;2023-05-21T03:05:56;101604.19;;;11.59;nan
71638;BME280;59485;43.542;-5.676;2023-05-21T03:08:23;101613.13;;;11.53;nan
71638;BME280;59485;43.542;-5.676;2023-05-21T03:10:49;101629.22;;;11.56;nan
71638;BME280;59485;43.542;-5.676;2023-05-21T03:13:14;101615.22;;;11.43;nan
71638;BME280;59485;43.542;-5.676;2023-05-21T03:15:40;101621.19;;;11.47;nan
71638;BME280;59485;43.542;-5.676;2023-05-21T03:18:05;101631.16;;;11.48;nan
71638;BME280;59485;43.542;-5.676;2023-05-21T03:20:31;101626.84;;;11.45;nan
71638;BME280;59485;43.542;-5.676;2023-05-21T03:22:57;101638.50;;;11.55;nan
71638;BME280;59485;43.542;-5.676;2023-05-21T03:25:33;101637.16;;;11.51;nan
71638;BME280;59485;43.542;-5.676;2023-05-21T03:28:01;101635.94;;;11.54;nan
71638;BME280;59485;43.542;-5.676;2023-05-21T03:30:26;101617.25;;;11.41;nan
71638;BME280;59485;43.542;-5.676;2023-05-21T03:32:52;101630.63;;;11.52;nan
71638;BME280;59485;43.542;-5.676;2023-05-21T03:35:18;101597.56;;;11.29;nan
71638;BME280;59485;43.542;-5.676;2023-05-21T03:37:43;101611.06;;;11.47;nan
71638;BME280;59485;43.542;-5.676;2023-05-21T03:40:09;101605.94;;;11.44;nan
71638;BME280;59485;43.542;-5.676;2023-05-21T03:42:35;101596.69;;;11.37;nan
71638;BME280;59485;43.542;-5.676;2023-05-21T03:45:01;101635.41;;;11.58;nan
71638;BME280;59485;43.542;-5.676;2023-05-21T03:47:27;101611.44;;;11.44;nan
71638;BME280;59485;43.542;-5.676;2023-05-21T03:49:52;101618.97;;;11.50;nan
71638;BME280;59485;43.542;-5.676;2023-05-21T03:52:18;101605.44;;;11.41;nan
71638;BME280;59485;43.542;-5.676;2023-05-21T03:54:43;101610.22;;;11.47;nan
71638;BME280;59485;43.542;-5.676;2023-05-21T03:57:09;101621.53;;;11.52;nan
71638;BME280;59485;43.542;-5.676;2023-05-21T03:59:34;101612.78;;;11.48;nan
71638;BME280;59485;43.542;-5.676;2023-05-21T04:02:00;101625.13;;;11.60;nan
71638;BME280;59485;43.542;-5.676;2023-05-21T04:04:25;101592.56;;;11.41;nan
71638;BME280;59485;43.542;-5.676;2023-05-21T04:06:53;101593.72;;;11.47;nan
71638;BME280;59485;43.542;-5.676;2023-05-21T04:09:19;101612.78;;;11.48;nan
71638;BME280;59485;43.542;-5.676;2023-05-21T04:11:45;101593.06;;;11.37;nan
71638;BME280;59485;43.542;-5.676;2023-05-21T04:14:12;101604.38;;;11.50;nan
71638;BME280;59485;43.542;-5.676;2023-05-21T04:16:37;101607.44;;;11.55;nan
71638;BME280;59485;43.542;-5.676;2023-05-21T04:19:04;101603.50;;;11.57;nan
71638;BME280;59485;43.542;-5.676;2023-05-21T04:21:29;101597.69;;;11.52;nan
71638;BME280;59485;43.542;-5.676;2023-05-21T04:23:56;101612.25;;;11.61;nan
71638;BME280;59485;43.542;-5.676;2023-05-21T04:26:22;101600.56;;;11.59;nan
71638;BME280;59485;43.542;-5.676;2023-05-21T04:28:49;101603.31;;;11.59;nan
71638;BME280;59485;43.542;-5.676;2023-05-21T04:31:15;101567.84;;;11.41;nan
71638;BME280;59485;43.542;-5.676;2023-05-21T04:33:41;101600.41;;;11.60;nan
71638;BME280;59485;43.542;-5.676;2023-05-21T04:36:10;101587.91;;;11.50;nan
71638;BME280;59485;43.542;-5.676;2023-05-21T04:38:36;101588.25;;;11.47;nan
71638;BME280;59485;43.542;-5.676;2023-05-21T04:41:02;101604.88;;;11.53;nan
71638;BME280;59485;43.542;-5.676;2023-05-21T04:43:29;101573.38;;;11.33;nan
71638;BME280;59485;43.542;-5.676;2023-05-21T04:45:54;101602.13;;;11.45;nan
71638;BME280;59485;43.542;-5.676;2023-05-21T04:48:21;101607.28;;;11.48;nan
71638;BME280;59485;43.542;-5.676;2023-05-21T04:50:51;101606.09;;;11.51;nan
71638;BME280;59485;43.542;-5.676;2023-05-21T04:53:17;101602.81;;;11.47;nan
71638;BME280;59485;43.542;-5.676;2023-05-21T04:55:43;101595.16;;;11.35;nan
71638;BME280;59485;43.542;-5.676;2023-05-21T04:58:09;101601.31;;;11.45;nan
71638;BME280;59485;43.542;-5.676;2023-05-21T05:00:36;101569.63;;;11.26;nan
71638;BME280;59485;43.542;-5.676;2023-05-21T05:03:02;101577.47;;;11.29;nan
71638;BME280;59485;43.542;-5.676;2023-05-21T05:05:28;101589.47;;;11.44;nan
71638;BME280;59485;43.542;-5.676;2023-05-21T05:07:53;101611.56;;;11.59;nan
71638;BME280;59485;43.542;-5.676;2023-05-21T05:10:19;101575.94;;;11.35;nan
71638;BME280;59485;43.542;-5.676;2023-05-21T05:12:44;101594.94;;;11.52;nan
71638;BME280;59485;43.542;-5.676;2023-05-21T05:15:10;101610.69;;;11.58;nan
71638;BME280;59485;43.542;-5.676;2023-05-21T05:17:35;101605.06;;;11.52;nan
71638;BME280;59485;43.542;-5.676;2023-05-21T05:20:01;101589.59;;;11.59;nan
71638;BME280;59485;43.542;-5.676;2023-05-21T05:22:26;101572.50;;;11.41;nan
71638;BME280;59485;43.542;-5.676;2023-05-21T05:24:52;101589.06;;;11.55;nan
71638;BME280;59485;43.542;-5.676;2023-05-21T05:27:17;101575.38;;;11.47;nan
71638;BME280;59485;43.542;-5.676;2023-05-21T05:29:43;101548.81;;;11.40;nan
71638;BME280;59485;43.542;-5.676;2023-05-21T05:32:09;101572.81;;;11.54;nan
71638;BME280;59485;43.542;-5.676;2023-05-21T05:34:36;101567.13;;;11.47;nan
71638;BME280;59485;43.542;-5.676;2023-05-21T05:37:01;101535.84;;;11.25;nan
71638;BME280;59485;43.542;-5.676;2023-05-21T05:39:28;101537.81;;;11.40;nan
71638;BME280;59485;43.542;-5.676;2023-05-21T05:41:54;101562.03;;;11.44;nan
71638;BME280;59485;43.542;-5.676;2023-05-21T05:44:20;101576.38;;;11.54;nan
71638;BME280;59485;43.542;-5.676;2023-05-21T05:46:45;101560.78;;;11.47;nan
71638;BME280;59485;43.542;-5.676;2023-05-21T05:49:11;101542.31;;;11.33;nan
71638;BME280;59485;43.542;-5.676;2023-05-21T05:51:37;101569.00;;;11.55;nan
71638;BME280;59485;43.542;-5.676;2023-05-21T05:54:03;101545.94;;;11.33;nan
71638;BME280;59485;43.542;-5.676;2023-05-21T05:56:29;101561.34;;;11.42;nan
71638;BME280;59485;43.542;-5.676;2023-05-21T05:58:54;101539.75;;;11.31;nan
71638;BME280;59485;43.542;-5.676;2023-05-21T06:01:20;101575.91;;;11.43;nan
71638;BME280;59485;43.542;-5.676;2023-05-21T06:03:49;101570.44;;;11.43;nan
71638;BME280;59485;43.542;-5.676;2023-05-21T06:06:16;101583.78;;;11.54;nan
71638;BME280;59485;43.542;-5.676;2023-05-21T06:08:45;101583.56;;;11.55;nan
71638;BME280;59485;43.542;-5.676;2023-05-21T06:11:21;101588.72;;;11.58;nan
71638;BME280;59485;43.542;-5.676;2023-05-21T06:13:47;101575.16;;;11.57;nan
71638;BME280;59485;43.542;-5.676;2023-05-21T06:16:12;101568.31;;;11.61;nan
71638;BME280;59485;43.542;-5.676;2023-05-21T06:18:38;101566.09;;;11.48;nan
71638;BME280;59485;43.542;-5.676;2023-05-21T06:21:03;101576.88;;;11.58;nan
71638;BME280;59485;43.542;-5.676;2023-05-21T06:23:29;101564.56;;;11.46;nan
71638;BME280;59485;43.542;-5.676;2023-05-21T06:25:56;101565.63;;;11.45;nan
71638;BME280;59485;43.542;-5.676;2023-05-21T06:28:22;101571.78;;;11.47;nan
71638;BME280;59485;43.542;-5.676;2023-05-21T06:30:47;101584.59;;;11.54;nan
71638;BME280;59485;43.542;-5.676;2023-05-21T06:33:13;101572.59;;;11.55;nan
71638;BME280;59485;43.542;-5.676;2023-05-21T06:35:38;101575.19;;;11.49;nan
71638;BME280;59485;43.542;-5.676;2023-05-21T06:38:04;101583.28;;;11.50;nan
71638;BME280;59485;43.542;-5.676;2023-05-21T06:40:30;101573.00;;;11.44;nan
71638;BME280;59485;43.542;-5.676;2023-05-21T06:42:55;101581.56;;;11.49;nan
71638;BME280;59485;43.542;-5.676;2023-05-21T06:45:21;101587.00;;;11.57;nan
71638;BME280;59485;43.542;-5.676;2023-05-21T06:47:47;101582.72;;;11.55;nan
71638;BME280;59485;43.542;-5.676;2023-05-21T06:50:13;101571.56;;;11.56;nan
71638;BME280;59485;43.542;-5.676;2023-05-21T06:52:38;101591.63;;;11.65;nan
71638;BME280;59485;43.542;-5.676;2023-05-21T06:55:04;101602.75;;;11.80;nan
71638;BME280;59485;43.542;-5.676;2023-05-21T06:57:30;101584.91;;;11.68;nan
71638;BME280;59485;43.542;-5.676;2023-05-21T06:59:55;101590.38;;;11.84;nan
71638;BME280;59485;43.542;-5.676;2023-05-21T07:02:21;101589.28;;;11.93;nan
71638;BME280;59485;43.542;-5.676;2023-05-21T07:04:46;101587.09;;;11.88;nan
71638;BME280;59485;43.542;-5.676;2023-05-21T07:07:12;101563.94;;;11.83;nan
71638;BME280;59485;43.542;-5.676;2023-05-21T07:09:37;101581.91;;;11.93;nan
71638;BME280;59485;43.542;-5.676;2023-05-21T07:12:03;101584.63;;;12.01;nan
71638;BME280;59485;43.542;-5.676;2023-05-21T07:14:28;101585.13;;;12.05;nan
71638;BME280;59485;43.542;-5.676;2023-05-21T07:16:54;101580.22;;;12.23;nan
71638;BME280;59485;43.542;-5.676;2023-05-21T07:19:20;101577.84;;;12.12;nan
71638;BME280;59485;43.542;-5.676;2023-05-21T07:21:45;101577.13;;;12.18;nan
71638;BME280;59485;43.542;-5.676;2023-05-21T07:24:11;101575.06;;;12.20;nan
71638;BME280;59485;43.542;-5.676;2023-05-21T07:26:36;101580.03;;;12.25;nan
71638;BME280;59485;43.542;-5.676;2023-05-21T07:29:02;101567.16;;;12.25;nan
71638;BME280;59485;43.542;-5.676;2023-05-21T07:31:27;101576.72;;;12.29;nan
71638;BME280;59485;43.542;-5.676;2023-05-21T07:33:53;101574.28;;;12.34;nan
71638;BME280;59485;43.542;-5.676;2023-05-21T07:36:19;101571.53;;;12.34;nan
71638;BME280;59485;43.542;-5.676;2023-05-21T07:38:44;101562.78;;;12.31;nan
71638;BME280;59485;43.542;-5.676;2023-05-21T07:41:10;101527.81;;;12.25;nan
71638;BME280;59485;43.542;-5.676;2023-05-21T07:43:35;101551.22;;;12.35;nan
71638;BME280;59485;43.542;-5.676;2023-05-21T07:46:01;101567.25;;;12.55;nan
71638;BME280;59485;43.542;-5.676;2023-05-21T07:48:26;101571.72;;;12.56;nan
71638;BME280;59485;43.542;-5.676;2023-05-21T07:50:52;101560.03;;;12.54;nan
71638;BME280;59485;43.542;-5.676;2023-05-21T07:53:17;101574.41;;;12.64;nan
71638;BME280;59485;43.542;-5.676;2023-05-21T07:55:43;101578.19;;;12.63;nan
71638;BME280;59485;43.542;-5.676;2023-05-21T07:58:15;101571.09;;;12.68;nan
71638;BME280;59485;43.542;-5.676;2023-05-21T08:00:45;101573.47;;;12.71;nan
71638;BME280;59485;43.542;-5.676;2023-05-21T08:03:15;101578.13;;;12.71;nan
71638;BME280;59485;43.542;-5.676;2023-05-21T08:05:45;101579.72;;;12.65;nan
71638;BME280;59485;43.542;-5.676;2023-05-21T08:08:19;101573.34;;;12.65;nan
71638;BME280;59485;43.542;-5.676;2023-05-21T08:10:46;101576.78;;;12.67;nan
71638;BME280;59485;43.542;-5.676;2023-05-21T08:13:12;101570.94;;;12.70;nan
71638;BME280;59485;43.542;-5.676;2023-05-21T08:15:38;101566.16;;;12.64;nan
71638;BME280;59485;43.542;-5.676;2023-05-21T08:18:03;101552.97;;;12.59;nan
71638;BME280;59485;43.542;-5.676;2023-05-21T08:20:30;101560.81;;;12.62;nan
71638;BME280;59485;43.542;-5.676;2023-05-21T08:22:56;101548.69;;;12.57;nan
71638;BME280;59485;43.542;-5.676;2023-05-21T08:25:23;101552.97;;;12.59;nan
71638;BME280;59485;43.542;-5.676;2023-05-21T08:27:48;101553.13;;;12.58;nan
71638;BME280;59485;43.542;-5.676;2023-05-21T08:30:14;101563.88;;;12.45;nan
71638;BME280;59485;43.542;-5.676;2023-05-21T08:32:39;101583.03;;;12.61;nan
71638;BME280;59485;43.542;-5.676;2023-05-21T08:35:05;101580.66;;;12.58;nan
71638;BME280;59485;43.542;-5.676;2023-05-21T08:37:32;101577.38;;;12.54;nan
71638;BME280;59485;43.542;-5.676;2023-05-21T08:39:58;101576.06;;;12.50;nan
71638;BME280;59485;43.542;-5.676;2023-05-21T08:42:38;101597.16;;;12.58;nan
71638;BME280;59485;43.542;-5.676;2023-05-21T08:45:05;101596.53;;;12.48;nan
71638;BME280;59485;43.542;-5.676;2023-05-21T08:47:33;101596.63;;;12.54;nan
71638;BME280;59485;43.542;-5.676;2023-05-21T08:49:59;101590.50;;;12.52;nan
71638;BME280;59485;43.542;-5.676;2023-05-21T08:52:26;101602.03;;;12.48;nan
71638;BME280;59485;43.542;-5.676;2023-05-21T08:54:52;101594.47;;;12.50;nan
71638;BME280;59485;43.542;-5.676;2023-05-21T08:57:21;101581.44;;;12.44;nan
71638;BME280;59485;43.542;-5.676;2023-05-21T08:59:48;101567.72;;;12.35;nan
71638;BME280;59485;43.542;-5.676;2023-05-21T09:02:15;101579.22;;;12.39;nan
71638;BME280;59485;43.542;-5.676;2023-05-21T09:04:44;101574.94;;;12.36;nan
71638;BME280;59485;43.542;-5.676;2023-05-21T09:07:14;101604.41;;;12.51;nan
71638;BME280;59485;43.542;-5.676;2023-05-21T09:09:56;101605.41;;;12.58;nan
71638;BME280;59485;43.542;-5.676;2023-05-21T09:12:24;101601.22;;;12.62;nan
71638;BME280;59485;43.542;-5.676;2023-05-21T09:14:50;101601.91;;;12.64;nan
71638;BME280;59485;43.542;-5.676;2023-05-21T09:17:16;101611.34;;;12.69;nan
71638;BME280;59485;43.542;-5.676;2023-05-21T09:22:51;101594.00;;;12.84;nan
71638;BME280;59485;43.542;-5.676;2023-05-21T09:25:24;101596.31;;;12.95;nan
71638;BME280;59485;43.542;-5.676;2023-05-21T09:27:53;101579.31;;;12.91;nan
71638;BME280;59485;43.542;-5.676;2023-05-21T09:30:20;101591.50;;;12.97;nan
71638;BME280;59485;43.542;-5.676;2023-05-21T09:32:51;101594.34;;;13.03;nan
71638;BME280;59485;43.542;-5.676;2023-05-21T09:35:17;101600.22;;;13.00;nan
71638;BME280;59485;43.542;-5.676;2023-05-21T09:37:46;101590.75;;;13.03;nan
71638;BME280;59485;43.542;-5.676;2023-05-21T09:40:20;101594.97;;;13.13;nan
71638;BME280;59485;43.542;-5.676;2023-05-21T09:42:47;101589.28;;;13.15;nan
71638;BME280;59485;43.542;-5.676;2023-05-21T09:45:24;101586.88;;;13.12;nan
71638;BME280;59485;43.542;-5.676;2023-05-21T09:47:52;101588.22;;;13.16;nan
71638;BME280;59485;43.542;-5.676;2023-05-21T09:50:21;101582.22;;;13.12;nan
71638;BME280;59485;43.542;-5.676;2023-05-21T09:52:50;101583.25;;;13.11;nan
71638;BME280;59485;43.542;-5.676;2023-05-21T09:55:18;101594.72;;;13.23;nan
71638;BME280;59485;43.542;-5.676;2023-05-21T09:57:47;101589.47;;;13.28;nan
71638;BME280;59485;43.542;-5.676;2023-05-21T10:00:24;101599.19;;;13.39;nan
71638;BME280;59485;43.542;-5.676;2023-05-21T10:02:56;101608.03;;;13.49;nan
71638;BME280;59485;43.542;-5.676;2023-05-21T10:05:28;101611.16;;;13.46;nan
71638;BME280;59485;43.542;-5.676;2023-05-21T10:07:59;101610.97;;;13.47;nan
71638;BME280;59485;43.542;-5.676;2023-05-21T10:10:27;101611.25;;;13.52;nan
71638;BME280;59485;43.542;-5.676;2023-05-21T10:13:03;101603.66;;;13.55;nan
71638;BME280;59485;43.542;-5.676;2023-05-21T10:15:33;101603.28;;;13.58;nan
71638;BME280;59485;43.542;-5.676;2023-05-21T10:18:00;101606.50;;;13.61;nan
71638;BME280;59485;43.542;-5.676;2023-05-21T10:20:28;101596.91;;;13.57;nan
71638;BME280;59485;43.542;-5.676;2023-05-21T10:22:54;101601.19;;;13.60;nan
71638;BME280;59485;43.542;-5.676;2023-05-21T10:25:20;101602.25;;;13.59;nan
71638;BME280;59485;43.542;-5.676;2023-05-21T10:27:47;101592.25;;;13.58;nan
71638;BME280;59485;43.542;-5.676;2023-05-21T10:30:14;101595.19;;;13.56;nan
71638;BME280;59485;43.542;-5.676;2023-05-21T10:32:40;101585.72;;;13.59;nan
71638;BME280;59485;43.542;-5.676;2023-05-21T10:35:08;101586.84;;;13.64;nan
71638;BME280;59485;43.542;-5.676;2023-05-21T10:37:35;101590.34;;;13.73;nan
71638;BME280;59485;43.542;-5.676;2023-05-21T10:40:00;101590.44;;;13.79;nan
71638;BME280;59485;43.542;-5.676;2023-05-21T10:50:32;101582.28;;;13.86;nan
71638;BME280;59485;43.542;-5.676;2023-05-21T10:55:49;101577.63;;;13.86;nan
71638;BME280;59485;43.542;-5.676;2023-05-21T10:58:42;101582.34;;;13.93;nan
71638;BME280;59485;43.542;-5.676;2023-05-21T11:01:14;101584.72;;;13.96;nan
71638;BME280;59485;43.542;-5.676;2023-05-21T11:03:40;101580.91;;;13.97;nan
71638;BME280;59485;43.542;-5.676;2023-05-21T11:06:05;101586.03;;;14.00;nan
71638;BME280;59485;43.542;-5.676;2023-05-21T11:08:32;101585.06;;;14.07;nan
71638;BME280;59485;43.542;-5.676;2023-05-21T11:11:03;101570.91;;;14.10;nan
71638;BME280;59485;43.542;-5.676;2023-05-21T11:13:46;101578.47;;;14.23;nan
71638;BME280;59485;43.542;-5.676;2023-05-21T11:16:16;101588.72;;;14.29;nan
71638;BME280;59485;43.542;-5.676;2023-05-21T11:21:14;101579.13;;;14.25;nan
71638;BME280;59485;43.542;-5.676;2023-05-21T11:29:12;101595.28;;;14.28;nan
71638;BME280;59485;43.542;-5.676;2023-05-21T11:31:44;101594.19;;;14.22;nan
71638;BME280;59485;43.542;-5.676;2023-05-21T11:34:17;101588.84;;;14.21;nan
71638;BME280;59485;43.542;-5.676;2023-05-21T11:36:45;101587.13;;;14.20;nan
71638;BME280;59485;43.542;-5.676;2023-05-21T11:39:12;101593.97;;;14.24;nan
71638;BME280;59485;43.542;-5.676;2023-05-21T11:42:00;101591.44;;;14.22;nan
71638;BME280;59485;43.542;-5.676;2023-05-21T11:44:39;101583.78;;;14.24;nan
71638;BME280;59485;43.542;-5.676;2023-05-21T11:47:16;101570.47;;;14.28;nan
71638;BME280;59485;43.542;-5.676;2023-05-21T11:49:43;101572.53;;;14.41;nan
71638;BME280;59485;43.542;-5.676;2023-05-21T11:52:09;101562.94;;;14.37;nan
71638;BME280;59485;43.542;-5.676;2023-05-21T11:54:42;101573.28;;;14.49;nan
71638;BME280;59485;43.542;-5.676;2023-05-21T11:57:11;101576.50;;;14.53;nan
71638;BME280;59485;43.542;-5.676;2023-05-21T11:59:40;101568.03;;;14.54;nan
71638;BME280;59485;43.542;-5.676;2023-05-21T12:02:06;101576.56;;;14.59;nan
71638;BME280;59485;43.542;-5.676;2023-05-21T12:04:33;101579.53;;;14.58;nan
71638;BME280;59485;43.542;-5.676;2023-05-21T12:07:05;101579.78;;;14.63;nan
71638;BME280;59485;43.542;-5.676;2023-05-21T12:09:46;101572.34;;;14.63;nan
71638;BME280;59485;43.542;-5.676;2023-05-21T12:12:14;101566.47;;;14.67;nan
71638;BME280;59485;43.542;-5.676;2023-05-21T12:14:43;101557.31;;;14.66;nan
71638;BME280;59485;43.542;-5.676;2023-05-21T12:17:09;101565.28;;;14.76;nan
71638;BME280;59485;43.542;-5.676;2023-05-21T12:19:38;101554.22;;;14.76;nan
71638;BME280;59485;43.542;-5.676;2023-05-21T12:22:04;101563.47;;;14.89;nan
71638;BME280;59485;43.542;-5.676;2023-05-21T12:24:31;101564.38;;;14.96;nan
71638;BME280;59485;43.542;-5.676;2023-05-21T12:26:58;101546.91;;;14.89;nan
71638;BME280;59485;43.542;-5.676;2023-05-21T12:29:27;101546.34;;;15.00;nan
71638;BME280;59485;43.542;-5.676;2023-05-21T12:31:52;101563.22;;;15.12;nan
71638;BME280;59485;43.542;-5.676;2023-05-21T12:34:50;101554.56;;;15.22;nan
71638;BME280;59485;43.542;-5.676;2023-05-21T12:37:23;101543.63;;;15.07;nan
71638;BME280;59485;43.542;-5.676;2023-05-21T12:39:58;101543.09;;;15.18;nan
71638;BME280;59485;43.542;-5.676;2023-05-21T12:42:31;101537.63;;;15.31;nan
71638;BME280;59485;43.542;-5.676;2023-05-21T12:45:01;101532.75;;;15.61;nan
71638;BME280;59485;43.542;-5.676;2023-05-21T12:47:30;101531.91;;;15.67;nan
71638;BME280;59485;43.542;-5.676;2023-05-21T12:49:58;101525.03;;;15.91;nan
71638;BME280;59485;43.542;-5.676;2023-05-21T12:52:24;101506.16;;;16.14;nan
71638;BME280;59485;43.542;-5.676;2023-05-21T12:54:55;101518.31;;;16.40;nan
71638;BME280;59485;43.542;-5.676;2023-05-21T12:57:23;101500.44;;;16.56;nan
71638;BME280;59485;43.542;-5.676;2023-05-21T12:59:56;101497.75;;;16.69;nan
71638;BME280;59485;43.542;-5.676;2023-05-21T13:02:36;101494.75;;;16.83;nan
71638;BME280;59485;43.542;-5.676;2023-05-21T13:05:04;101501.13;;;16.84;nan
71638;BME280;59485;43.542;-5.676;2023-05-21T13:07:31;101497.47;;;17.10;nan
71638;BME280;59485;43.542;-5.676;2023-05-21T13:09:58;101501.91;;;17.31;nan
71638;BME280;59485;43.542;-5.676;2023-05-21T13:12:25;101491.41;;;17.52;nan
71638;BME280;59485;43.542;-5.676;2023-05-21T13:14:58;101483.28;;;17.64;nan
71638;BME280;59485;43.542;-5.676;2023-05-21T13:17:24;101503.13;;;17.68;nan
71638;BME280;59485;43.542;-5.676;2023-05-21T13:20:07;101500.91;;;17.89;nan
71638;BME280;59485;43.542;-5.676;2023-05-21T13:22:34;101489.69;;;17.65;nan
71638;BME280;59485;43.542;-5.676;2023-05-21T13:25:04;101500.91;;;17.83;nan